sensor_id;sensor_type;location;lat;lon;timestamp;temperature;humidity
42979;DHT22;28616;44.746;19.678;2022-09-17T00:00:21;16.30;99.90
42979;DHT22;28616;44.746;19.678;2022-09-17T00:02:51;16.30;99.90
42979;DHT22;28616;44.746;19.678;2022-09-17T00:05:21;16.30;99.90
42979;DHT22;28616;44.746;19.678;2022-09-17T00:07:48;16.30;99.90
42979;DHT22;28616;44.746;19.678;2022-09-17T00:10:14;16.30;99.90
42979;DHT22;28616;44.746;19.678;2022-09-17T00:12:39;16.30;99.90
42979;DHT22;28616;44.746;19.678;2022-09-17T00:15:06;16.30;99.90
42979;DHT22;28616;44.746;19.678;2022-09-17T00:17:32;16.30;99.90
42979;DHT22;28616;44.746;19.678;2022-09-17T00:19:58;16.40;99.90
42979;DHT22;28616;44.746;19.678;2022-09-17T00:22:24;16.30;99.90
42979;DHT22;28616;44.746;19.678;2022-09-17T00:24:49;16.20;99.90
42979;DHT22;28616;44.746;19.678;2022-09-17T00:27:15;16.10;99.90
42979;DHT22;28616;44.746;19.678;2022-09-17T00:29:41;16.10;99.90
42979;DHT22;28616;44.746;19.678;2022-09-17T00:32:07;16.00;99.90
42979;DHT22;28616;44.746;19.678;2022-09-17T00:34:34;15.90;99.90
42979;DHT22;28616;44.746;19.678;2022-09-17T00:36:59;15.80;99.90
42979;DHT22;28616;44.746;19.678;2022-09-17T00:39:25;15.80;99.90
42979;DHT22;28616;44.746;19.678;2022-09-17T00:41:51;15.70;99.90
42979;DHT22;28616;44.746;19.678;2022-09-17T00:44:40;15.70;99.90
42979;DHT22;28616;44.746;19.678;2022-09-17T00:47:16;15.60;99.90
42979;DHT22;28616;44.746;19.678;2022-09-17T00:49:43;15.50;99.90
42979;DHT22;28616;44.746;19.678;2022-09-17T00:52:15;15.40;99.90
42979;DHT22;28616;44.746;19.678;2022-09-17T00:54:48;15.40;99.90
42979;DHT22;28616;44.746;19.678;2022-09-17T00:57:15;15.40;99.90
42979;DHT22;28616;44.746;19.678;2022-09-17T00:59:41;15.50;99.90
42979;DHT22;28616;44.746;19.678;2022-09-17T01:02:07;15.50;99.90
42979;DHT22;28616;44.746;19.678;2022-09-17T01:04:33;15.60;99.90
42979;DHT22;28616;44.746;19.678;2022-09-17T01:12:37;15.70;99.90
42979;DHT22;28616;44.746;19.678;2022-09-17T01:29:12;15.30;99.90
42979;DHT22;28616;44.746;19.678;2022-09-17T01:31:52;15.10;99.90
42979;DHT22;28616;44.746;19.678;2022-09-17T01:34:40;15.20;99.90
42979;DHT22;28616;44.746;19.678;2022-09-17T01:37:27;15.00;99.90
42979;DHT22;28616;44.746;19.678;2022-09-17T01:40:04;15.00;99.90
42979;DHT22;28616;44.746;19.678;2022-09-17T01:50:50;14.80;99.90
42979;DHT22;28616;44.746;19.678;2022-09-17T01:53:20;14.80;99.90
42979;DHT22;28616;44.746;19.678;2022-09-17T01:55:50;14.60;99.90
42979;DHT22;28616;44.746;19.678;2022-09-17T01:58:25;14.50;99.90
42979;DHT22;28616;44.746;19.678;2022-09-17T02:00:57;14.40;99.90
42979;DHT22;28616;44.746;19.678;2022-09-17T02:03:24;14.40;99.90
42979;DHT22;28616;44.746;19.678;2022-09-17T02:08:23;14.20;99.90
42979;DHT22;28616;44.746;19.678;2022-09-17T02:11:09;14.20;99.90
42979;DHT22;28616;44.746;19.678;2022-09-17T02:16:31;14.20;99.90
42979;DHT22;28616;44.746;19.678;2022-09-17T02:19:26;14.20;99.90
42979;DHT22;28616;44.746;19.678;2022-09-17T02:22:13;14.20;99.90
42979;DHT22;28616;44.746;19.678;2022-09-17T02:29:41;14.10;99.90
42979;DHT22;28616;44.746;19.678;2022-09-17T02:32:08;14.20;99.90
42979;DHT22;28616;44.746;19.678;2022-09-17T02:34:34;14.30;99.90
42979;DHT22;28616;44.746;19.678;2022-09-17T02:37:01;14.20;99.90
42979;DHT22;28616;44.746;19.678;2022-09-17T02:39:28;14.20;99.90
42979;DHT22;28616;44.746;19.678;2022-09-17T02:47:51;14.10;99.90
42979;DHT22;28616;44.746;19.678;2022-09-17T02:51:19;14.10;99.90
42979;DHT22;28616;44.746;19.678;2022-09-17T02:56:25;14.10;99.90
42979;DHT22;28616;44.746;19.678;2022-09-17T02:59:30;14.20;99.90
42979;DHT22;28616;44.746;19.678;2022-09-17T03:02:06;14.20;99.90
42979;DHT22;28616;44.746;19.678;2022-09-17T03:04:34;14.20;99.90
42979;DHT22;28616;44.746;19.678;2022-09-17T03:07:08;14.20;99.90
42979;DHT22;28616;44.746;19.678;2022-09-17T03:09:36;14.10;99.90
42979;DHT22;28616;44.746;19.678;2022-09-17T03:12:03;14.10;99.90
42979;DHT22;28616;44.746;19.678;2022-09-17T03:14:29;14.00;99.90
42979;DHT22;28616;44.746;19.678;2022-09-17T03:16:55;14.00;99.90
42979;DHT22;28616;44.746;19.678;2022-09-17T03:19:21;13.90;99.90
42979;DHT22;28616;44.746;19.678;2022-09-17T03:21:46;14.00;99.90
42979;DHT22;28616;44.746;19.678;2022-09-17T03:24:12;13.90;99.90
42979;DHT22;28616;44.746;19.678;2022-09-17T03:26:38;13.90;99.90
42979;DHT22;28616;44.746;19.678;2022-09-17T03:29:04;13.90;99.90
42979;DHT22;28616;44.746;19.678;2022-09-17T03:31:30;14.00;99.90
42979;DHT22;28616;44.746;19.678;2022-09-17T03:33:56;14.00;99.90
42979;DHT22;28616;44.746;19.678;2022-09-17T03:36:23;14.00;99.90
42979;DHT22;28616;44.746;19.678;2022-09-17T03:38:54;13.90;99.90
42979;DHT22;28616;44.746;19.678;2022-09-17T03:41:20;14.00;99.90
42979;DHT22;28616;44.746;19.678;2022-09-17T03:43:46;13.90;99.90
42979;DHT22;28616;44.746;19.678;2022-09-17T03:46:11;13.90;99.90
42979;DHT22;28616;44.746;19.678;2022-09-17T03:48:37;13.90;99.90
42979;DHT22;28616;44.746;19.678;2022-09-17T03:51:05;13.90;99.90
42979;DHT22;28616;44.746;19.678;2022-09-17T03:53:31;13.90;99.90
42979;DHT22;28616;44.746;19.678;2022-09-17T03:56:02;13.90;99.90
42979;DHT22;28616;44.746;19.678;2022-09-17T03:58:29;13.90;99.90
42979;DHT22;28616;44.746;19.678;2022-09-17T04:00:56;13.90;99.90
42979;DHT22;28616;44.746;19.678;2022-09-17T04:03:26;14.00;99.90
42979;DHT22;28616;44.746;19.678;2022-09-17T04:05:52;14.00;99.90
42979;DHT22;28616;44.746;19.678;2022-09-17T04:08:18;13.90;99.90
42979;DHT22;28616;44.746;19.678;2022-09-17T04:10:45;13.90;99.90
42979;DHT22;28616;44.746;19.678;2022-09-17T04:13:12;13.90;99.90
42979;DHT22;28616;44.746;19.678;2022-09-17T04:15:38;13.80;99.90
42979;DHT22;28616;44.746;19.678;2022-09-17T04:18:04;13.90;99.90
42979;DHT22;28616;44.746;19.678;2022-09-17T04:20:30;13.90;99.90
42979;DHT22;28616;44.746;19.678;2022-09-17T04:22:56;13.80;99.90
42979;DHT22;28616;44.746;19.678;2022-09-17T04:25:22;13.80;99.90
42979;DHT22;28616;44.746;19.678;2022-09-17T04:27:48;13.90;99.90
42979;DHT22;28616;44.746;19.678;2022-09-17T04:30:15;13.90;99.90
42979;DHT22;28616;44.746;19.678;2022-09-17T04:32:42;13.90;99.90
42979;DHT22;28616;44.746;19.678;2022-09-17T04:35:09;13.80;99.90
42979;DHT22;28616;44.746;19.678;2022-09-17T04:37:35;13.80;99.90
42979;DHT22;28616;44.746;19.678;2022-09-17T04:40:02;13.90;99.90
42979;DHT22;28616;44.746;19.678;2022-09-17T04:42:28;13.90;99.90
42979;DHT22;28616;44.746;19.678;2022-09-17T04:44:54;13.90;99.90
42979;DHT22;28616;44.746;19.678;2022-09-17T04:47:19;13.90;99.90
42979;DHT22;28616;44.746;19.678;2022-09-17T04:49:45;13.80;99.90
42979;DHT22;28616;44.746;19.678;2022-09-17T04:52:11;13.90;99.90
42979;DHT22;28616;44.746;19.678;2022-09-17T04:54:36;13.90;99.90
42979;DHT22;28616;44.746;19.678;2022-09-17T04:57:02;13.90;99.90
42979;DHT22;28616;44.746;19.678;2022-09-17T04:59:28;13.80;99.90
42979;DHT22;28616;44.746;19.678;2022-09-17T05:01:54;13.80;99.90
42979;DHT22;28616;44.746;19.678;2022-09-17T05:04:20;13.70;99.90
42979;DHT22;28616;44.746;19.678;2022-09-17T05:06:45;13.70;99.90
42979;DHT22;28616;44.746;19.678;2022-09-17T05:09:11;13.70;99.90
42979;DHT22;28616;44.746;19.678;2022-09-17T05:11:37;13.70;99.90
42979;DHT22;28616;44.746;19.678;2022-09-17T05:14:03;13.70;99.90
42979;DHT22;28616;44.746;19.678;2022-09-17T05:16:29;13.70;99.90
42979;DHT22;28616;44.746;19.678;2022-09-17T05:18:54;13.70;99.90
42979;DHT22;28616;44.746;19.678;2022-09-17T05:21:22;13.60;99.90
42979;DHT22;28616;44.746;19.678;2022-09-17T05:23:48;13.60;99.90
42979;DHT22;28616;44.746;19.678;2022-09-17T05:26:14;13.60;99.90
42979;DHT22;28616;44.746;19.678;2022-09-17T05:28:40;13.60;99.90
42979;DHT22;28616;44.746;19.678;2022-09-17T05:31:07;13.60;99.90
42979;DHT22;28616;44.746;19.678;2022-09-17T05:33:33;13.60;99.90
42979;DHT22;28616;44.746;19.678;2022-09-17T05:35:59;13.60;99.90
42979;DHT22;28616;44.746;19.678;2022-09-17T05:38:25;13.70;99.90
42979;DHT22;28616;44.746;19.678;2022-09-17T05:40:51;13.80;99.90
42979;DHT22;28616;44.746;19.678;2022-09-17T05:43:17;13.80;99.90
42979;DHT22;28616;44.746;19.678;2022-09-17T05:45:43;13.80;99.90
42979;DHT22;28616;44.746;19.678;2022-09-17T05:48:12;13.80;99.90
42979;DHT22;28616;44.746;19.678;2022-09-17T05:50:38;13.80;99.90
42979;DHT22;28616;44.746;19.678;2022-09-17T05:53:07;13.70;99.90
42979;DHT22;28616;44.746;19.678;2022-09-17T05:55:34;13.80;99.90
42979;DHT22;28616;44.746;19.678;2022-09-17T05:58:00;13.70;99.90
42979;DHT22;28616;44.746;19.678;2022-09-17T06:00:26;13.70;99.90
42979;DHT22;28616;44.746;19.678;2022-09-17T06:02:58;13.70;99.90
42979;DHT22;28616;44.746;19.678;2022-09-17T06:05:24;13.70;99.90
42979;DHT22;28616;44.746;19.678;2022-09-17T06:07:50;13.70;99.90
42979;DHT22;28616;44.746;19.678;2022-09-17T06:10:16;13.70;99.90
42979;DHT22;28616;44.746;19.678;2022-09-17T06:12:42;13.70;99.90
42979;DHT22;28616;44.746;19.678;2022-09-17T06:15:08;13.70;99.90
42979;DHT22;28616;44.746;19.678;2022-09-17T06:17:35;13.80;99.90
42979;DHT22;28616;44.746;19.678;2022-09-17T06:20:02;13.80;99.90
42979;DHT22;28616;44.746;19.678;2022-09-17T06:22:28;13.80;99.90
42979;DHT22;28616;44.746;19.678;2022-09-17T06:24:54;13.80;99.90
42979;DHT22;28616;44.746;19.678;2022-09-17T06:27:19;13.70;99.90
42979;DHT22;28616;44.746;19.678;2022-09-17T06:29:45;13.70;99.90
42979;DHT22;28616;44.746;19.678;2022-09-17T06:32:11;13.70;99.90
42979;DHT22;28616;44.746;19.678;2022-09-17T06:34:40;13.70;99.90
42979;DHT22;28616;44.746;19.678;2022-09-17T06:37:05;13.80;99.90
42979;DHT22;28616;44.746;19.678;2022-09-17T06:39:32;13.80;99.90
42979;DHT22;28616;44.746;19.678;2022-09-17T06:41:58;13.80;99.90
42979;DHT22;28616;44.746;19.678;2022-09-17T06:44:24;13.80;99.90
42979;DHT22;28616;44.746;19.678;2022-09-17T06:46:50;13.80;99.90
42979;DHT22;28616;44.746;19.678;2022-09-17T06:49:17;13.80;99.90
42979;DHT22;28616;44.746;19.678;2022-09-17T06:51:43;13.90;99.90
42979;DHT22;28616;44.746;19.678;2022-09-17T06:54:09;13.90;99.90
42979;DHT22;28616;44.746;19.678;2022-09-17T06:56:35;13.80;99.90
42979;DHT22;28616;44.746;19.678;2022-09-17T06:59:01;13.90;99.90
42979;DHT22;28616;44.746;19.678;2022-09-17T07:01:27;13.90;99.90
42979;DHT22;28616;44.746;19.678;2022-09-17T07:03:53;13.90;99.90
42979;DHT22;28616;44.746;19.678;2022-09-17T07:06:19;13.90;99.90
42979;DHT22;28616;44.746;19.678;2022-09-17T07:08:45;14.00;99.90
42979;DHT22;28616;44.746;19.678;2022-09-17T07:11:12;14.00;99.90
42979;DHT22;28616;44.746;19.678;2022-09-17T07:13:38;14.10;99.90
42979;DHT22;28616;44.746;19.678;2022-09-17T07:16:04;14.10;99.90
42979;DHT22;28616;44.746;19.678;2022-09-17T07:18:31;14.10;99.90
42979;DHT22;28616;44.746;19.678;2022-09-17T07:20:59;14.20;99.90
42979;DHT22;28616;44.746;19.678;2022-09-17T07:23:28;14.20;99.90
42979;DHT22;28616;44.746;19.678;2022-09-17T07:25:55;14.20;99.90
42979;DHT22;28616;44.746;19.678;2022-09-17T07:28:22;14.20;99.90
42979;DHT22;28616;44.746;19.678;2022-09-17T07:30:48;14.20;99.90
42979;DHT22;28616;44.746;19.678;2022-09-17T07:33:15;14.20;99.90
42979;DHT22;28616;44.746;19.678;2022-09-17T07:35:41;14.20;99.90
42979;DHT22;28616;44.746;19.678;2022-09-17T07:38:07;14.30;99.90
42979;DHT22;28616;44.746;19.678;2022-09-17T07:40:33;14.30;99.90
42979;DHT22;28616;44.746;19.678;2022-09-17T07:42:58;14.40;99.90
42979;DHT22;28616;44.746;19.678;2022-09-17T07:45:24;14.40;99.90
42979;DHT22;28616;44.746;19.678;2022-09-17T07:47:50;14.50;99.90
42979;DHT22;28616;44.746;19.678;2022-09-17T07:50:16;14.50;99.90
42979;DHT22;28616;44.746;19.678;2022-09-17T07:52:48;14.50;99.90
42979;DHT22;28616;44.746;19.678;2022-09-17T07:55:14;14.50;99.90
42979;DHT22;28616;44.746;19.678;2022-09-17T07:57:40;14.50;99.90
42979;DHT22;28616;44.746;19.678;2022-09-17T08:00:06;14.60;99.90
42979;DHT22;28616;44.746;19.678;2022-09-17T08:02:32;14.60;99.90
42979;DHT22;28616;44.746;19.678;2022-09-17T08:04:58;14.70;99.90
42979;DHT22;28616;44.746;19.678;2022-09-17T08:07:24;14.70;99.90
42979;DHT22;28616;44.746;19.678;2022-09-17T08:09:50;14.70;99.90
42979;DHT22;28616;44.746;19.678;2022-09-17T08:12:16;14.80;99.90
42979;DHT22;28616;44.746;19.678;2022-09-17T08:14:43;14.80;99.90
42979;DHT22;28616;44.746;19.678;2022-09-17T08:17:09;14.80;99.90
42979;DHT22;28616;44.746;19.678;2022-09-17T08:19:35;14.80;99.90
42979;DHT22;28616;44.746;19.678;2022-09-17T08:22:01;14.80;99.90
42979;DHT22;28616;44.746;19.678;2022-09-17T08:24:27;14.80;99.90
42979;DHT22;28616;44.746;19.678;2022-09-17T08:26:52;14.80;99.90
42979;DHT22;28616;44.746;19.678;2022-09-17T08:29:18;14.80;99.90
42979;DHT22;28616;44.746;19.678;2022-09-17T08:31:44;14.80;99.90
42979;DHT22;28616;44.746;19.678;2022-09-17T08:34:10;14.80;99.90
42979;DHT22;28616;44.746;19.678;2022-09-17T08:36:36;14.70;99.90
42979;DHT22;28616;44.746;19.678;2022-09-17T08:39:02;14.80;99.90
42979;DHT22;28616;44.746;19.678;2022-09-17T08:41:43;14.80;99.90
42979;DHT22;28616;44.746;19.678;2022-09-17T08:44:29;14.80;99.90
42979;DHT22;28616;44.746;19.678;2022-09-17T08:47:24;14.80;99.90
42979;DHT22;28616;44.746;19.678;2022-09-17T08:49:50;14.90;99.90
42979;DHT22;28616;44.746;19.678;2022-09-17T08:57:48;15.00;99.90
42979;DHT22;28616;44.746;19.678;2022-09-17T09:00:19;15.10;99.90
42979;DHT22;28616;44.746;19.678;2022-09-17T09:05:45;15.10;99.90
42979;DHT22;28616;44.746;19.678;2022-09-17T09:08:35;15.10;99.90
42979;DHT22;28616;44.746;19.678;2022-09-17T09:11:04;15.00;99.90
42979;DHT22;28616;44.746;19.678;2022-09-17T09:13:38;15.10;99.90
42979;DHT22;28616;44.746;19.678;2022-09-17T09:16:11;15.10;99.90
42979;DHT22;28616;44.746;19.678;2022-09-17T09:18:39;15.00;99.90
42979;DHT22;28616;44.746;19.678;2022-09-17T09:21:28;15.20;99.90
42979;DHT22;28616;44.746;19.678;2022-09-17T09:24:05;15.20;99.90
42979;DHT22;28616;44.746;19.678;2022-09-17T09:26:42;15.10;99.90
42979;DHT22;28616;44.746;19.678;2022-09-17T09:29:39;15.20;99.90
42979;DHT22;28616;44.746;19.678;2022-09-17T09:34:33;15.30;99.90
42979;DHT22;28616;44.746;19.678;2022-09-17T09:37:27;15.40;99.90
42979;DHT22;28616;44.746;19.678;2022-09-17T09:40:06;15.40;99.90
42979;DHT22;28616;44.746;19.678;2022-09-17T09:42:42;15.40;99.90
42979;DHT22;28616;44.746;19.678;2022-09-17T09:45:15;15.40;99.90
42979;DHT22;28616;44.746;19.678;2022-09-17T09:47:56;15.50;99.90
42979;DHT22;28616;44.746;19.678;2022-09-17T09:50:43;15.50;99.90
42979;DHT22;28616;44.746;19.678;2022-09-17T09:58:34;15.60;99.90
42979;DHT22;28616;44.746;19.678;2022-09-17T10:01:00;15.70;99.90
42979;DHT22;28616;44.746;19.678;2022-09-17T10:03:29;15.70;99.90
42979;DHT22;28616;44.746;19.678;2022-09-17T10:06:02;15.70;99.90
42979;DHT22;28616;44.746;19.678;2022-09-17T10:08:34;15.70;99.90
42979;DHT22;28616;44.746;19.678;2022-09-17T10:11:47;15.70;99.90
42979;DHT22;28616;44.746;19.678;2022-09-17T10:13:48;15.70;99.90
42979;DHT22;28616;44.746;19.678;2022-09-17T10:16:21;15.70;99.90
42979;DHT22;28616;44.746;19.678;2022-09-17T10:18:54;15.80;99.90
42979;DHT22;28616;44.746;19.678;2022-09-17T10:21:37;15.90;99.90
42979;DHT22;28616;44.746;19.678;2022-09-17T10:24:26;15.90;99.90
42979;DHT22;28616;44.746;19.678;2022-09-17T10:27:05;16.00;99.90
42979;DHT22;28616;44.746;19.678;2022-09-17T10:29:32;15.90;99.90
42979;DHT22;28616;44.746;19.678;2022-09-17T10:31:59;15.90;99.90
42979;DHT22;28616;44.746;19.678;2022-09-17T10:34:26;15.90;99.90
42979;DHT22;28616;44.746;19.678;2022-09-17T10:36:54;15.90;99.90
42979;DHT22;28616;44.746;19.678;2022-09-17T10:44:37;16.10;99.90
42979;DHT22;28616;44.746;19.678;2022-09-17T10:47:04;16.00;99.90
42979;DHT22;28616;44.746;19.678;2022-09-17T10:49:54;15.90;99.90
42979;DHT22;28616;44.746;19.678;2022-09-17T10:52:39;15.90;99.90
42979;DHT22;28616;44.746;19.678;2022-09-17T11:03:16;15.70;99.90
42979;DHT22;28616;44.746;19.678;2022-09-17T11:08:33;15.70;99.90
42979;DHT22;28616;44.746;19.678;2022-09-17T11:16:54;15.70;99.90
42979;DHT22;28616;44.746;19.678;2022-09-17T11:19:30;15.70;99.90
42979;DHT22;28616;44.746;19.678;2022-09-17T11:24:42;15.70;99.90
42979;DHT22;28616;44.746;19.678;2022-09-17T11:30:02;15.70;99.90
42979;DHT22;28616;44.746;19.678;2022-09-17T11:32:45;15.70;99.90
42979;DHT22;28616;44.746;19.678;2022-09-17T11:35:19;15.70;99.90
42979;DHT22;28616;44.746;19.678;2022-09-17T11:37:51;15.70;99.90
42979;DHT22;28616;44.746;19.678;2022-09-17T11:40:21;15.70;99.90
42979;DHT22;28616;44.746;19.678;2022-09-17T11:42:50;15.70;99.90
42979;DHT22;28616;44.746;19.678;2022-09-17T11:45:22;15.70;99.90
42979;DHT22;28616;44.746;19.678;2022-09-17T11:47:55;15.60;99.90
42979;DHT22;28616;44.746;19.678;2022-09-17T11:50:35;15.60;99.90
42979;DHT22;28616;44.746;19.678;2022-09-17T11:53:24;15.50;99.90
42979;DHT22;28616;44.746;19.678;2022-09-17T11:56:14;15.50;99.90
42979;DHT22;28616;44.746;19.678;2022-09-17T11:59:10;15.50;99.90
42979;DHT22;28616;44.746;19.678;2022-09-17T12:01:52;15.40;99.90
42979;DHT22;28616;44.746;19.678;2022-09-17T12:04:45;15.40;99.90
42979;DHT22;28616;44.746;19.678;2022-09-17T12:10:36;15.20;99.90
42979;DHT22;28616;44.746;19.678;2022-09-17T12:15:37;14.90;99.90
42979;DHT22;28616;44.746;19.678;2022-09-17T12:18:41;14.80;99.90
42979;DHT22;28616;44.746;19.678;2022-09-17T12:21:14;14.80;99.90
42979;DHT22;28616;44.746;19.678;2022-09-17T12:32:21;14.70;99.90
42979;DHT22;28616;44.746;19.678;2022-09-17T12:34:55;14.70;99.90
42979;DHT22;28616;44.746;19.678;2022-09-17T12:37:42;14.80;99.90
42979;DHT22;28616;44.746;19.678;2022-09-17T12:42:53;14.80;99.90
42979;DHT22;28616;44.746;19.678;2022-09-17T12:48:21;14.70;99.90
42979;DHT22;28616;44.746;19.678;2022-09-17T12:51:16;14.70;99.90
42979;DHT22;28616;44.746;19.678;2022-09-17T12:59:11;14.60;99.90
42979;DHT22;28616;44.746;19.678;2022-09-17T13:01:48;14.70;99.90
42979;DHT22;28616;44.746;19.678;2022-09-17T13:13:01;14.60;99.90
42979;DHT22;28616;44.746;19.678;2022-09-17T13:21:11;14.50;99.90
42979;DHT22;28616;44.746;19.678;2022-09-17T13:23:45;14.50;99.90
42979;DHT22;28616;44.746;19.678;2022-09-17T13:26:13;14.50;99.90
42979;DHT22;28616;44.746;19.678;2022-09-17T13:28:50;14.50;99.90
42979;DHT22;28616;44.746;19.678;2022-09-17T13:34:02;14.50;99.90
42979;DHT22;28616;44.746;19.678;2022-09-17T13:36:42;14.50;99.90
42979;DHT22;28616;44.746;19.678;2022-09-17T13:42:20;14.60;99.90
42979;DHT22;28616;44.746;19.678;2022-09-17T13:45:03;14.50;99.90
42979;DHT22;28616;44.746;19.678;2022-09-17T13:47:33;14.60;99.90
42979;DHT22;28616;44.746;19.678;2022-09-17T13:50:09;14.60;99.90
42979;DHT22;28616;44.746;19.678;2022-09-17T13:52:48;14.60;99.90
42979;DHT22;28616;44.746;19.678;2022-09-17T13:57:56;14.60;99.90
42979;DHT22;28616;44.746;19.678;2022-09-17T14:00:48;14.60;99.90
42979;DHT22;28616;44.746;19.678;2022-09-17T14:24:39;14.00;99.90
42979;DHT22;28616;44.746;19.678;2022-09-17T14:30:20;13.90;99.90
42979;DHT22;28616;44.746;19.678;2022-09-17T14:33:15;13.90;99.90
42979;DHT22;28616;44.746;19.678;2022-09-17T14:35:48;13.80;99.90
42979;DHT22;28616;44.746;19.678;2022-09-17T14:38:30;13.80;99.90
42979;DHT22;28616;44.746;19.678;2022-09-17T14:41:24;13.70;99.90
42979;DHT22;28616;44.746;19.678;2022-09-17T14:43:57;13.80;99.90
42979;DHT22;28616;44.746;19.678;2022-09-17T14:46:28;13.80;99.90
42979;DHT22;28616;44.746;19.678;2022-09-17T14:48:55;13.70;99.90
42979;DHT22;28616;44.746;19.678;2022-09-17T14:51:41;13.70;99.90
42979;DHT22;28616;44.746;19.678;2022-09-17T14:54:13;13.60;99.90
42979;DHT22;28616;44.746;19.678;2022-09-17T14:59:30;13.60;99.90
42979;DHT22;28616;44.746;19.678;2022-09-17T15:01:58;13.60;99.90
42979;DHT22;28616;44.746;19.678;2022-09-17T15:04:26;13.50;99.90
42979;DHT22;28616;44.746;19.678;2022-09-17T15:07:05;13.60;99.90
42979;DHT22;28616;44.746;19.678;2022-09-17T15:09:34;13.60;99.90
42979;DHT22;28616;44.746;19.678;2022-09-17T15:12:00;13.70;99.90
42979;DHT22;28616;44.746;19.678;2022-09-17T15:14:31;13.70;99.90
42979;DHT22;28616;44.746;19.678;2022-09-17T15:17:00;13.70;99.90
42979;DHT22;28616;44.746;19.678;2022-09-17T15:19:33;13.60;99.90
42979;DHT22;28616;44.746;19.678;2022-09-17T15:22:20;13.70;99.90
42979;DHT22;28616;44.746;19.678;2022-09-17T15:25:15;13.70;99.90
42979;DHT22;28616;44.746;19.678;2022-09-17T15:27:46;13.70;99.90
42979;DHT22;28616;44.746;19.678;2022-09-17T15:32:48;13.60;99.90
42979;DHT22;28616;44.746;19.678;2022-09-17T15:37:46;13.50;99.90
42979;DHT22;28616;44.746;19.678;2022-09-17T15:40:30;13.50;99.90
42979;DHT22;28616;44.746;19.678;2022-09-17T15:43:24;13.50;99.90
42979;DHT22;28616;44.746;19.678;2022-09-17T15:45:46;13.50;99.90
42979;DHT22;28616;44.746;19.678;2022-09-17T15:50:51;13.30;99.90
42979;DHT22;28616;44.746;19.678;2022-09-17T15:53:22;13.30;99.90
42979;DHT22;28616;44.746;19.678;2022-09-17T16:08:43;13.30;99.90
42979;DHT22;28616;44.746;19.678;2022-09-17T16:11:12;13.30;99.90
42979;DHT22;28616;44.746;19.678;2022-09-17T16:13:38;13.30;99.90
42979;DHT22;28616;44.746;19.678;2022-09-17T16:16:04;13.30;99.90
42979;DHT22;28616;44.746;19.678;2022-09-17T16:18:30;13.30;99.90
42979;DHT22;28616;44.746;19.678;2022-09-17T16:20:56;13.20;99.90
42979;DHT22;28616;44.746;19.678;2022-09-17T16:23:22;13.20;99.90
42979;DHT22;28616;44.746;19.678;2022-09-17T16:25:47;13.20;99.90
42979;DHT22;28616;44.746;19.678;2022-09-17T16:28:17;13.30;99.90
42979;DHT22;28616;44.746;19.678;2022-09-17T16:30:46;13.30;99.90
42979;DHT22;28616;44.746;19.678;2022-09-17T16:33:14;13.30;99.90
42979;DHT22;28616;44.746;19.678;2022-09-17T16:35:41;13.20;99.90
42979;DHT22;28616;44.746;19.678;2022-09-17T16:38:07;13.10;99.90
42979;DHT22;28616;44.746;19.678;2022-09-17T16:40:38;13.10;99.90
42979;DHT22;28616;44.746;19.678;2022-09-17T16:43:03;13.10;99.90
42979;DHT22;28616;44.746;19.678;2022-09-17T16:45:30;13.10;99.90
42979;DHT22;28616;44.746;19.678;2022-09-17T16:47:56;13.20;99.90
42979;DHT22;28616;44.746;19.678;2022-09-17T16:50:23;13.20;99.90
42979;DHT22;28616;44.746;19.678;2022-09-17T16:52:49;13.20;99.90
42979;DHT22;28616;44.746;19.678;2022-09-17T16:55:16;13.20;99.90
42979;DHT22;28616;44.746;19.678;2022-09-17T16:57:43;13.10;99.90
42979;DHT22;28616;44.746;19.678;2022-09-17T17:00:11;13.10;99.90
42979;DHT22;28616;44.746;19.678;2022-09-17T17:02:38;13.10;99.90
42979;DHT22;28616;44.746;19.678;2022-09-17T17:05:04;13.00;99.90
42979;DHT22;28616;44.746;19.678;2022-09-17T17:07:30;13.00;99.90
42979;DHT22;28616;44.746;19.678;2022-09-17T17:09:58;13.00;99.90
42979;DHT22;28616;44.746;19.678;2022-09-17T17:12:24;12.90;99.90
42979;DHT22;28616;44.746;19.678;2022-09-17T17:14:50;12.80;99.90
42979;DHT22;28616;44.746;19.678;2022-09-17T17:17:18;12.60;99.90
42979;DHT22;28616;44.746;19.678;2022-09-17T17:19:44;12.50;99.90
42979;DHT22;28616;44.746;19.678;2022-09-17T17:22:14;12.40;99.90
42979;DHT22;28616;44.746;19.678;2022-09-17T17:24:40;12.30;99.90
42979;DHT22;28616;44.746;19.678;2022-09-17T17:27:06;12.20;99.90
42979;DHT22;28616;44.746;19.678;2022-09-17T17:29:34;12.20;99.90
42979;DHT22;28616;44.746;19.678;2022-09-17T17:32:02;12.10;99.90
42979;DHT22;28616;44.746;19.678;2022-09-17T17:34:28;12.10;99.90
42979;DHT22;28616;44.746;19.678;2022-09-17T17:36:55;12.00;99.90
42979;DHT22;28616;44.746;19.678;2022-09-17T17:39:21;11.90;99.90
42979;DHT22;28616;44.746;19.678;2022-09-17T17:41:47;11.70;99.90
42979;DHT22;28616;44.746;19.678;2022-09-17T17:44:13;11.70;99.90
42979;DHT22;28616;44.746;19.678;2022-09-17T17:46:39;11.60;99.90
42979;DHT22;28616;44.746;19.678;2022-09-17T17:49:05;11.60;99.90
42979;DHT22;28616;44.746;19.678;2022-09-17T17:51:32;11.60;99.90
42979;DHT22;28616;44.746;19.678;2022-09-17T17:53:58;11.50;99.90
42979;DHT22;28616;44.746;19.678;2022-09-17T17:56:23;11.60;99.90
42979;DHT22;28616;44.746;19.678;2022-09-17T17:58:57;11.60;99.90
42979;DHT22;28616;44.746;19.678;2022-09-17T18:01:25;11.60;99.90
42979;DHT22;28616;44.746;19.678;2022-09-17T18:03:59;11.60;99.90
42979;DHT22;28616;44.746;19.678;2022-09-17T18:06:26;11.60;99.90
42979;DHT22;28616;44.746;19.678;2022-09-17T18:08:52;11.60;99.90
42979;DHT22;28616;44.746;19.678;2022-09-17T18:11:18;11.60;99.90
42979;DHT22;28616;44.746;19.678;2022-09-17T18:13:45;11.60;99.90
42979;DHT22;28616;44.746;19.678;2022-09-17T18:16:12;11.60;99.90
42979;DHT22;28616;44.746;19.678;2022-09-17T18:18:42;11.60;99.90
42979;DHT22;28616;44.746;19.678;2022-09-17T18:21:10;11.60;99.90
42979;DHT22;28616;44.746;19.678;2022-09-17T18:23:38;11.60;99.90
42979;DHT22;28616;44.746;19.678;2022-09-17T18:26:06;11.60;99.90
42979;DHT22;28616;44.746;19.678;2022-09-17T18:28:34;11.60;99.90
42979;DHT22;28616;44.746;19.678;2022-09-17T18:31:23;11.60;99.90
42979;DHT22;28616;44.746;19.678;2022-09-17T18:34:09;11.60;99.90
42979;DHT22;28616;44.746;19.678;2022-09-17T18:36:36;11.50;99.90
42979;DHT22;28616;44.746;19.678;2022-09-17T18:39:05;11.50;99.90
42979;DHT22;28616;44.746;19.678;2022-09-17T18:41:33;11.50;99.90